Time;durP1;ratioP1;P1;durP2;ratioP2;P2;SDS_P1;SDS_P2;PMS_P1;PMS_P2;Temp;Humidity;BMP_temperature;BMP_pressure;BME280_temperature;BME280_humidity;BME280_pressure;Samples;Min_cycle;Max_cycle;Signal;HPM_P1;HPM_P2
2023/12/29 00:01:45;;;;;;;2.50;1.38;;;22.30;52.30;;;;;;4980621;28;20022;-71
2023/12/29 00:04:11;;;;;;;2.40;1.50;;;22.30;52.30;;;;;;4979836;28;20080;-70
2023/12/29 00:06:40;;;;;;;3.20;1.65;;;22.30;52.40;;;;;;4978370;28;20037;-70
2023/12/29 00:09:07;;;;;;;;;;;22.30;52.30;;;;;;4980048;28;20037;-70
2023/12/29 00:11:33;;;;;;;2.80;1.63;;;22.30;52.30;;;;;;4993580;28;19913;-69
2023/12/29 00:13:59;;;;;;;1.92;1.23;;;22.30;52.20;;;;;;4978617;28;20498;-70
2023/12/29 00:16:24;;;;;;;2.92;1.70;;;22.30;52.20;;;;;;4981222;28;20065;-70
2023/12/29 00:18:50;;;;;;;3.03;1.67;;;22.40;52.30;;;;;;4980537;28;20482;-70
2023/12/29 00:21:16;;;;;;;2.33;1.40;;;22.40;52.30;;;;;;4980219;28;20471;-70
2023/12/29 00:23:41;;;;;;;2.75;1.60;;;22.30;52.30;;;;;;4980856;28;20029;-70
2023/12/29 00:26:07;;;;;;;2.17;1.25;;;22.30;52.30;;;;;;4980436;28;20102;-70
2023/12/29 00:28:35;;;;;;;2.72;1.38;;;22.30;52.30;;;;;;4979514;28;20109;-70
2023/12/29 00:31:01;;;;;;;2.75;1.40;;;22.40;52.40;;;;;;4981006;28;20440;-70
2023/12/29 00:33:26;;;;;;;2.70;1.33;;;22.30;52.30;;;;;;4981512;28;20065;-69
2023/12/29 00:35:52;;;;;;;2.80;1.38;;;22.40;52.70;;;;;;4988392;28;20080;-69
2023/12/29 00:38:17;;;;;;;2.20;1.30;;;22.40;52.40;;;;;;4989643;28;20035;-68
2023/12/29 00:40:43;;;;;;;2.17;1.50;;;22.40;52.40;;;;;;4991793;28;20058;-69
2023/12/29 00:43:09;;;;;;;2.67;1.48;;;22.40;52.30;;;;;;4991021;28;20034;-69
2023/12/29 00:45:35;;;;;;;2.30;1.33;;;22.40;52.30;;;;;;4983206;28;20049;-68
2023/12/29 00:48:02;;;;;;;2.55;1.30;;;22.40;52.30;;;;;;4984727;28;20031;-69
2023/12/29 00:50:27;;;;;;;2.95;1.50;;;22.40;52.40;;;;;;4983416;28;20038;-69
2023/12/29 00:52:53;;;;;;;2.75;1.60;;;22.40;52.50;;;;;;4983807;28;20031;-68
2023/12/29 00:55:19;;;;;;;2.28;1.40;;;22.40;52.40;;;;;;4979175;28;20057;-69
2023/12/29 00:57:45;;;;;;;2.95;1.90;;;22.40;52.40;;;;;;4998657;28;20042;-69
2023/12/29 01:00:12;;;;;;;2.47;1.30;;;22.40;52.30;;;;;;4982502;28;20030;-69
2023/12/29 01:02:38;;;;;;;2.35;1.35;;;22.40;52.30;;;;;;4983237;28;20479;-69
2023/12/29 01:05:05;;;;;;;2.30;1.35;;;22.40;52.30;;;;;;4982059;28;20163;-69
2023/12/29 01:07:31;;;;;;;2.83;1.20;;;22.40;52.30;;;;;;4997098;28;20038;-68
2023/12/29 01:09:56;;;;;;;2.00;1.20;;;22.40;52.30;;;;;;4982932;28;20106;-69
2023/12/29 01:12:22;;;;;;;2.53;1.40;;;22.30;52.20;;;;;;4983684;28;20133;-69
2023/12/29 01:14:47;;;;;;;1.98;1.15;;;22.30;52.30;;;;;;4982336;28;20037;-69
2023/12/29 01:17:13;;;;;;;2.20;1.25;;;22.30;52.30;;;;;;4984479;28;20478;-69
2023/12/29 01:19:39;;;;;;;2.55;1.40;;;22.30;52.20;;;;;;4983200;28;20033;-69
2023/12/29 01:22:04;;;;;;;2.22;1.20;;;22.30;52.30;;;;;;4984081;28;20066;-69
2023/12/29 01:24:30;;;;;;;2.60;1.20;;;22.30;52.30;;;;;;4983261;28;20026;-69
2023/12/29 01:26:56;;;;;;;2.03;1.25;;;22.30;52.80;;;;;;4984980;28;20026;-69
2023/12/29 01:29:22;;;;;;;2.08;1.27;;;22.30;52.30;;;;;;4983078;28;20050;-69
2023/12/29 01:31:47;;;;;;;2.53;1.48;;;22.20;52.30;;;;;;4981497;28;20051;-69
2023/12/29 01:34:13;;;;;;;2.13;1.23;;;22.20;52.30;;;;;;4984454;28;20030;-69
2023/12/29 01:36:39;;;;;;;2.53;1.35;;;22.20;52.30;;;;;;4982974;28;20117;-69
2023/12/29 01:39:05;;;;;;;2.38;1.58;;;22.20;52.40;;;;;;4983383;28;20034;-69
2023/12/29 01:41:30;;;;;;;2.40;1.42;;;22.20;52.40;;;;;;4983166;28;20031;-69
2023/12/29 01:43:56;;;;;;;2.63;1.27;;;22.20;52.40;;;;;;4983193;28;20019;-68
2023/12/29 01:46:22;;;;;;;2.15;1.13;;;22.10;52.40;;;;;;4983784;28;20546;-68
2023/12/29 01:48:48;;;;;;;1.83;1.27;;;22.10;52.40;;;;;;4982365;28;20050;-69
2023/12/29 01:51:15;;;;;;;2.47;1.50;;;22.10;52.40;;;;;;4981909;28;20482;-68
2023/12/29 01:53:41;;;;;;;2.38;1.40;;;22.10;52.40;;;;;;4997165;28;20061;-68
2023/12/29 01:56:07;;;;;;;1.65;1.23;;;22.10;52.50;;;;;;4978607;28;20059;-68
2023/12/29 01:58:33;;;;;;;2.42;1.13;;;22.10;52.50;;;;;;4982723;28;20030;-68
2023/12/29 02:01:01;;;;;;;2.55;1.40;;;22.00;52.40;;;;;;4997621;28;20077;-68
2023/12/29 02:03:27;;;;;;;2.00;1.17;;;22.00;52.40;;;;;;4999092;28;20101;-68
2023/12/29 02:05:55;;;;;;;1.77;1.23;;;22.00;52.50;;;;;;4983334;28;20575;-68
2023/12/29 02:08:22;;;;;;;2.28;1.05;;;22.00;52.50;;;;;;4982717;28;20037;-68
2023/12/29 02:10:48;;;;;;;1.95;1.15;;;22.00;52.50;;;;;;4997695;28;20070;-68
2023/12/29 02:13:14;;;;;;;1.85;1.17;;;21.90;52.50;;;;;;4982584;28;20500;-68
2023/12/29 02:15:40;;;;;;;2.20;1.20;;;21.90;52.50;;;;;;4982467;28;20077;-68
2023/12/29 02:18:09;;;;;;;2.33;1.33;;;21.90;53.10;;;;;;4979360;28;20031;-68
2023/12/29 02:20:35;;;;;;;2.17;1.20;;;21.90;52.60;;;;;;4980528;28;20519;-68
2023/12/29 02:23:02;;;;;;;1.40;1.00;;;21.90;52.60;;;;;;4981894;28;20113;-68
2023/12/29 02:25:28;;;;;;;2.22;1.20;;;21.90;52.60;;;;;;4981420;28;20081;-68
2023/12/29 02:28:10;;;;;;;2.00;1.20;;;21.90;52.70;;;;;;4981289;28;20122;-68
2023/12/29 02:30:46;;;;;;;1.90;1.30;;;21.80;52.60;;;;;;4979967;28;20038;-68
2023/12/29 02:33:20;;;;;;;2.78;1.30;;;21.80;52.60;;;;;;4979655;28;20027;-68
2023/12/29 02:35:48;;;;;;;1.83;1.30;;;21.80;52.60;;;;;;4982945;28;20118;-68
2023/12/29 02:38:14;;;;;;;2.33;1.13;;;21.80;52.70;;;;;;4982593;28;20050;-67
2023/12/29 02:40:40;;;;;;;2.13;1.15;;;21.80;52.70;;;;;;4982359;28;20104;-67
2023/12/29 02:43:09;;;;;;;1.88;1.23;;;21.70;52.70;;;;;;4981649;28;20031;-68
2023/12/29 02:45:34;;;;;;;1.80;1.20;;;21.70;52.60;;;;;;4981834;28;20026;-68
2023/12/29 02:48:00;;;;;;;1.83;1.17;;;21.70;52.60;;;;;;4996006;28;20085;-67
2023/12/29 02:50:25;;;;;;;1.42;1.10;;;21.70;52.70;;;;;;4981256;28;20049;-68
2023/12/29 02:52:51;;;;;;;1.30;0.95;;;21.70;52.70;;;;;;4980882;28;20062;-69
2023/12/29 02:55:17;;;;;;;1.65;1.00;;;21.70;52.80;;;;;;4981991;28;20068;-69
2023/12/29 02:57:42;;;;;;;1.63;1.10;;;21.70;52.80;;;;;;4994975;28;20035;-68
2023/12/29 03:00:08;;;;;;;1.60;1.10;;;21.60;52.80;;;;;;4980537;28;20046;-67
2023/12/29 03:02:34;;;;;;;2.22;1.50;;;21.60;52.90;;;;;;4980896;28;20546;-68
2023/12/29 03:05:00;;;;;;;1.88;1.13;;;21.60;52.80;;;;;;4981030;28;20026;-68
2023/12/29 03:07:26;;;;;;;1.90;1.20;;;21.60;52.80;;;;;;4980728;28;20130;-69
2023/12/29 03:09:51;;;;;;;1.73;1.10;;;21.60;52.90;;;;;;4980244;28;20034;-67
2023/12/29 03:12:17;;;;;;;1.95;1.00;;;21.60;52.90;;;;;;4979616;28;20066;-68
2023/12/29 03:14:44;;;;;;;2.05;1.10;;;21.60;52.90;;;;;;4981320;28;20049;-68
2023/12/29 03:17:10;;;;;;;1.63;1.15;;;21.60;52.90;;;;;;4980786;28;20077;-68
2023/12/29 03:19:35;;;;;;;1.55;1.00;;;21.50;52.80;;;;;;4980427;28;20042;-68
2023/12/29 03:22:01;;;;;;;1.60;1.10;;;21.50;52.90;;;;;;4979959;28;20482;-67
2023/12/29 03:24:28;;;;;;;1.60;0.90;;;21.50;52.90;;;;;;4978035;28;20027;-68
2023/12/29 03:26:54;;;;;;;1.70;1.00;;;21.50;53.00;;;;;;4981254;28;20503;-69
2023/12/29 03:29:20;;;;;;;1.85;1.05;;;21.50;53.00;;;;;;4980091;28;20034;-67
2023/12/29 03:31:46;;;;;;;2.22;1.10;;;21.50;53.10;;;;;;4980612;28;20558;-68
2023/12/29 03:34:11;;;;;;;1.60;1.00;;;21.50;53.10;;;;;;4982813;28;20545;-67
2023/12/29 03:36:37;;;;;;;2.08;1.30;;;21.40;53.10;;;;;;4980822;28;20037;-68
2023/12/29 03:39:03;;;;;;;1.30;1.00;;;21.40;53.10;;;;;;4981173;28;20113;-68
2023/12/29 03:41:28;;;;;;;1.92;1.10;;;21.40;53.10;;;;;;4980423;28;20089;-68
2023/12/29 03:43:56;;;;;;;1.83;1.08;;;21.40;53.20;;;;;;4981882;28;20023;-68
2023/12/29 03:46:22;;;;;;;1.23;0.90;;;21.40;53.30;;;;;;4994738;28;20023;-68
2023/12/29 03:48:48;;;;;;;1.50;1.00;;;21.40;53.20;;;;;;4979393;28;20081;-68
2023/12/29 03:51:15;;;;;;;1.42;0.90;;;21.40;53.80;;;;;;4995180;28;20577;-68
2023/12/29 03:53:41;;;;;;;1.23;1.00;;;21.40;53.30;;;;;;4979402;28;20045;-67
2023/12/29 03:56:08;;;;;;;1.23;0.93;;;21.40;53.30;;;;;;4979439;28;20022;-68
2023/12/29 03:58:34;;;;;;;1.40;1.00;;;21.40;53.30;;;;;;4979504;28;20117;-68
2023/12/29 04:01:00;;;;;;;1.30;0.95;;;21.30;53.30;;;;;;4979283;28;20030;-67
2023/12/29 04:03:25;;;;;;;1.92;1.00;;;21.30;53.30;;;;;;4979659;28;20497;-68
2023/12/29 04:05:51;;;;;;;1.88;1.00;;;21.30;53.40;;;;;;4981277;28;20057;-70
2023/12/29 04:08:16;;;;;;;1.52;1.00;;;21.30;53.40;;;;;;4978674;28;20062;-71
2023/12/29 04:10:42;;;;;;;1.55;1.00;;;21.30;53.40;;;;;;4981752;28;20503;-70
2023/12/29 04:13:08;;;;;;;1.45;1.10;;;21.30;53.40;;;;;;4979572;28;20034;-70
2023/12/29 04:15:33;;;;;;;1.88;1.00;;;21.30;53.50;;;;;;4978940;28;20339;-70
2023/12/29 04:17:59;;;;;;;1.20;0.90;;;21.30;53.50;;;;;;4982604;28;20034;-70
2023/12/29 04:20:25;;;;;;;1.08;0.80;;;21.30;53.60;;;;;;4979665;28;20505;-70
2023/12/29 04:22:50;;;;;;;1.20;0.90;;;21.20;53.50;;;;;;4978760;28;20027;-70
2023/12/29 04:25:16;;;;;;;1.70;0.93;;;21.20;53.50;;;;;;4979666;28;20030;-71
2023/12/29 04:27:42;;;;;;;1.08;0.80;;;21.20;53.60;;;;;;4979488;28;20565;-70
2023/12/29 04:30:08;;;;;;;1.35;0.90;;;21.20;53.60;;;;;;4995802;28;20038;-70
2023/12/29 04:32:33;;;;;;;1.88;1.00;;;21.20;53.60;;;;;;4994859;28;20069;-70
2023/12/29 04:34:59;;;;;;;1.50;0.90;;;21.20;53.70;;;;;;4977920;28;20475;-70
2023/12/29 04:37:24;;;;;;;1.45;1.00;;;21.10;53.60;;;;;;4978320;28;20102;-70
2023/12/29 04:39:50;;;;;;;1.13;0.88;;;21.10;53.70;;;;;;4994250;28;20387;-70
2023/12/29 04:42:17;;;;;;;1.25;0.88;;;21.10;53.70;;;;;;4977649;28;20069;-70
2023/12/29 04:44:43;;;;;;;1.15;0.80;;;21.10;53.70;;;;;;4978588;28;20162;-70
2023/12/29 04:47:09;;;;;;;1.40;1.00;;;21.10;53.80;;;;;;4980555;28;20056;-70
2023/12/29 04:49:35;;;;;;;1.30;0.80;;;21.10;53.80;;;;;;4980880;28;20426;-70
2023/12/29 04:52:00;;;;;;;1.13;0.82;;;21.10;53.80;;;;;;4978933;28;20469;-70
2023/12/29 04:54:26;;;;;;;1.00;0.80;;;21.10;53.80;;;;;;4978288;28;20110;-69
2023/12/29 04:56:51;;;;;;;1.05;0.75;;;21.00;53.80;;;;;;4979024;28;20037;-69
2023/12/29 04:59:17;;;;;;;1.30;0.90;;;21.00;53.80;;;;;;4979231;28;20104;-69
2023/12/29 05:01:43;;;;;;;1.23;0.82;;;21.00;53.80;;;;;;4979249;28;20031;-69
2023/12/29 05:04:08;;;;;;;1.20;0.80;;;21.00;53.90;;;;;;4979847;28;20033;-69
2023/12/29 05:06:34;;;;;;;1.33;0.93;;;21.00;53.90;;;;;;4979506;28;20026;-69
2023/12/29 05:09:00;;;;;;;1.10;0.90;;;21.00;53.90;;;;;;4979364;28;20513;-69
2023/12/29 05:11:25;;;;;;;1.55;0.90;;;21.00;53.90;;;;;;4980104;28;20019;-69
2023/12/29 05:13:51;;;;;;;1.23;0.80;;;21.00;53.90;;;;;;4993402;28;20165;-69
2023/12/29 05:16:17;;;;;;;1.10;0.80;;;21.00;54.00;;;;;;4979067;28;20019;-69
2023/12/29 05:18:42;;;;;;;0.93;0.75;;;21.00;54.00;;;;;;4976971;28;20031;-69
2023/12/29 05:21:18;;;;;;;1.05;0.75;;;21.00;54.00;;;;;;4980357;28;20027;-69
2023/12/29 05:23:48;;;;;;;1.73;1.00;;;21.00;54.00;;;;;;4981176;28;20356;-68
2023/12/29 05:26:16;;;;;;;;;;;20.90;53.90;;;;;;4982039;28;20056;-69
2023/12/29 05:28:42;;;;;;;0.70;0.70;;;20.90;54.00;;;;;;4976855;28;19911;-69
2023/12/29 05:31:08;;;;;;;1.00;0.75;;;20.90;54.00;;;;;;4979805;28;20376;-69
2023/12/29 05:33:34;;;;;;;1.20;0.80;;;20.90;54.00;;;;;;4979910;28;20402;-69
2023/12/29 05:36:07;;;;;;;0.98;0.70;;;20.90;54.00;;;;;;4978841;28;20498;-69
2023/12/29 05:38:34;;;;;;;1.45;0.90;;;20.90;54.00;;;;;;4979950;28;20030;-69
2023/12/29 05:41:01;;;;;;;0.80;0.80;;;20.90;54.10;;;;;;4980149;28;20475;-70
2023/12/29 05:43:27;;;;;;;1.27;0.82;;;20.90;54.00;;;;;;4980057;28;20537;-69
2023/12/29 05:45:53;;;;;;;1.27;0.82;;;20.90;54.00;;;;;;4983453;28;20023;-69
2023/12/29 05:48:18;;;;;;;0.90;0.80;;;20.90;54.60;;;;;;4984123;28;20343;-69
2023/12/29 05:50:44;;;;;;;1.13;0.80;;;20.80;54.00;;;;;;4983142;28;20042;-69
2023/12/29 05:53:09;;;;;;;1.20;0.80;;;20.80;54.00;;;;;;4982948;28;20026;-69
2023/12/29 05:55:35;;;;;;;2.00;1.00;;;20.80;54.00;;;;;;4981501;28;20549;-69
2023/12/29 05:58:01;;;;;;;1.05;0.80;;;20.80;53.90;;;;;;4982855;28;20034;-69
2023/12/29 06:00:27;;;;;;;1.02;0.80;;;20.80;53.80;;;;;;4997537;28;20829;-69
2023/12/29 06:02:52;;;;;;;1.25;0.80;;;20.80;53.80;;;;;;4982836;28;20033;-69
2023/12/29 06:05:18;;;;;;;0.88;0.77;;;20.80;53.90;;;;;;4982691;28;20518;-70
2023/12/29 06:07:44;;;;;;;1.23;0.90;;;20.80;53.80;;;;;;4981315;28;20026;-70
2023/12/29 06:10:10;;;;;;;1.23;0.90;;;20.80;53.90;;;;;;4996087;28;20043;-70
2023/12/29 06:12:35;;;;;;;1.10;0.90;;;20.80;53.80;;;;;;4996676;28;20073;-70
2023/12/29 06:15:01;;;;;;;1.30;0.80;;;20.80;53.90;;;;;;4980786;28;20026;-70
2023/12/29 06:17:27;;;;;;;1.08;0.77;;;20.80;53.90;;;;;;4980613;28;20121;-70
2023/12/29 06:19:53;;;;;;;1.20;0.90;;;20.80;53.90;;;;;;4983324;28;20419;-70
2023/12/29 06:22:18;;;;;;;1.20;0.80;;;20.80;53.90;;;;;;4995947;28;20027;-70
2023/12/29 06:24:44;;;;;;;1.25;0.90;;;20.80;54.40;;;;;;4984186;28;20057;-68
2023/12/29 06:27:11;;;;;;;1.10;0.90;;;20.80;54.00;;;;;;4981184;28;20041;-68
2023/12/29 06:29:36;;;;;;;1.20;0.80;;;20.70;53.90;;;;;;4981762;28;20034;-69
2023/12/29 06:32:03;;;;;;;1.20;0.90;;;20.80;54.00;;;;;;4982251;28;20045;-69
2023/12/29 06:34:29;;;;;;;0.95;0.80;;;20.70;54.00;;;;;;4983237;28;20474;-68
2023/12/29 06:36:55;;;;;;;1.35;0.88;;;20.70;54.00;;;;;;4996798;28;20129;-69
2023/12/29 06:39:20;;;;;;;1.15;0.90;;;20.70;54.10;;;;;;4982695;28;20031;-68
2023/12/29 06:41:46;;;;;;;0.90;0.70;;;20.70;54.10;;;;;;4980257;28;20568;-69
2023/12/29 06:44:12;;;;;;;1.13;0.80;;;20.70;54.10;;;;;;4980638;28;20033;-69
2023/12/29 06:46:38;;;;;;;0.93;0.80;;;20.70;54.10;;;;;;4982413;28;20077;-69
2023/12/29 06:49:03;;;;;;;1.45;0.90;;;20.70;54.10;;;;;;4981430;28;20023;-68
2023/12/29 06:51:29;;;;;;;1.15;0.90;;;20.70;54.10;;;;;;4976980;28;20104;-69
2023/12/29 06:53:55;;;;;;;1.00;0.80;;;20.70;54.60;;;;;;4981601;28;20461;-69
2023/12/29 06:56:20;;;;;;;1.00;0.80;;;20.70;54.10;;;;;;4982352;28;20034;-69
2023/12/29 06:58:46;;;;;;;1.48;0.90;;;20.70;54.10;;;;;;4980630;28;20502;-68
2023/12/29 07:01:12;;;;;;;1.23;1.00;;;20.70;54.20;;;;;;4983397;28;20092;-69
2023/12/29 07:03:38;;;;;;;1.40;0.70;;;20.60;54.10;;;;;;4994691;28;20030;-69
2023/12/29 07:06:04;;;;;;;1.23;0.90;;;20.60;54.20;;;;;;4982424;28;20089;-69
2023/12/29 07:08:29;;;;;;;1.30;0.90;;;20.60;54.20;;;;;;4982320;28;20130;-68
2023/12/29 07:10:55;;;;;;;0.75;0.75;;;20.60;54.20;;;;;;4980940;28;20390;-68
2023/12/29 07:13:21;;;;;;;1.25;0.90;;;20.60;54.20;;;;;;4979387;28;20027;-69
2023/12/29 07:15:49;;;;;;;0.98;0.80;;;20.60;54.20;;;;;;4979140;28;20045;-70
2023/12/29 07:18:15;;;;;;;1.23;0.80;;;20.60;54.20;;;;;;4980713;28;20554;-69
2023/12/29 07:20:42;;;;;;;1.17;0.82;;;20.60;54.20;;;;;;4981230;28;20036;-69
2023/12/29 07:23:07;;;;;;;1.20;0.88;;;20.60;54.20;;;;;;4980310;28;20026;-69
2023/12/29 07:25:33;;;;;;;1.33;0.90;;;20.60;54.20;;;;;;4983068;28;20545;-69
2023/12/29 07:27:59;;;;;;;1.05;0.82;;;20.60;54.20;;;;;;4976093;28;20695;-70
2023/12/29 07:30:25;;;;;;;0.75;0.68;;;20.60;54.20;;;;;;4979518;28;20030;-69
2023/12/29 07:32:51;;;;;;;0.88;0.60;;;20.60;54.20;;;;;;4997469;28;20148;-69
2023/12/29 07:35:19;;;;;;;1.05;0.70;;;20.60;54.20;;;;;;4979701;28;20661;-69
2023/12/29 07:37:45;;;;;;;1.02;0.88;;;20.60;54.20;;;;;;4979978;28;20046;-69
2023/12/29 07:40:12;;;;;;;1.40;0.82;;;20.60;54.20;;;;;;4976322;28;20427;-69
2023/12/29 07:42:39;;;;;;;1.40;0.98;;;20.60;54.20;;;;;;4980476;28;20045;-69
2023/12/29 07:45:06;;;;;;;1.27;0.80;;;20.50;54.20;;;;;;4980809;28;20035;-69
2023/12/29 07:47:31;;;;;;;1.20;0.80;;;20.60;54.20;;;;;;4979527;28;20066;-69
2023/12/29 07:49:57;;;;;;;0.95;0.85;;;20.50;54.20;;;;;;4979044;28;20199;-69
2023/12/29 07:52:23;;;;;;;1.02;0.77;;;20.50;54.20;;;;;;4981424;28;20761;-69
2023/12/29 07:54:49;;;;;;;1.05;0.80;;;20.60;54.30;;;;;;4981327;28;20035;-69
2023/12/29 07:57:15;;;;;;;1.27;0.80;;;20.50;54.20;;;;;;4979890;28;20052;-69
2023/12/29 07:59:40;;;;;;;0.70;0.60;;;20.50;54.50;;;;;;4980552;28;20915;-69
2023/12/29 08:02:06;;;;;;;1.13;0.80;;;20.50;54.30;;;;;;4994548;28;20030;-69
2023/12/29 08:04:32;;;;;;;1.15;0.80;;;20.50;54.30;;;;;;4996895;28;20267;-69
2023/12/29 08:06:58;;;;;;;1.48;0.90;;;20.50;54.30;;;;;;4978487;28;20027;-69
2023/12/29 08:09:23;;;;;;;0.85;0.70;;;20.50;54.40;;;;;;4978723;28;20046;-69
2023/12/29 08:11:49;;;;;;;1.25;0.80;;;20.50;54.40;;;;;;4978909;28;20034;-70
2023/12/29 08:14:15;;;;;;;0.82;0.73;;;20.50;54.40;;;;;;4978399;28;20049;-69
2023/12/29 08:16:41;;;;;;;0.70;0.70;;;20.50;54.40;;;;;;4976664;28;20392;-69
2023/12/29 08:19:08;;;;;;;1.25;0.80;;;20.50;54.40;;;;;;4979919;28;20089;-69
2023/12/29 08:21:33;;;;;;;1.13;0.90;;;20.50;54.40;;;;;;4980670;28;20467;-69
2023/12/29 08:23:59;;;;;;;1.30;0.80;;;20.50;54.60;;;;;;4996487;28;20191;-69
2023/12/29 08:26:25;;;;;;;0.85;0.70;;;20.50;54.40;;;;;;4979781;28;20030;-69
2023/12/29 08:28:51;;;;;;;0.93;0.73;;;20.50;54.40;;;;;;4979644;28;20348;-69
2023/12/29 08:31:19;;;;;;;1.15;0.90;;;20.40;54.40;;;;;;4979659;28;20216;-70
2023/12/29 08:33:45;;;;;;;1.30;0.90;;;20.40;54.40;;;;;;4981210;28;20027;-69
2023/12/29 08:36:12;;;;;;;1.50;0.90;;;20.40;54.40;;;;;;4980266;28;20102;-69
2023/12/29 08:38:38;;;;;;;0.80;0.70;;;20.50;54.30;;;;;;4992763;28;20030;-69
2023/12/29 08:41:04;;;;;;;1.05;0.80;;;20.40;54.30;;;;;;4980282;28;20506;-69
2023/12/29 08:43:30;;;;;;;1.00;0.80;;;20.40;54.20;;;;;;4993765;28;20118;-69
2023/12/29 08:45:56;;;;;;;1.00;0.85;;;20.40;54.20;;;;;;4994687;28;20046;-69
2023/12/29 08:48:22;;;;;;;1.67;0.82;;;20.50;54.20;;;;;;4979438;28;20034;-69
2023/12/29 08:50:49;;;;;;;1.23;0.90;;;20.40;54.10;;;;;;4980102;28;20482;-68
2023/12/29 08:53:16;;;;;;;1.20;0.90;;;20.40;54.10;;;;;;4979318;28;20491;-69
2023/12/29 08:55:42;;;;;;;1.45;0.90;;;20.40;54.10;;;;;;4979670;28;20042;-70
2023/12/29 08:58:08;;;;;;;1.38;1.00;;;20.40;54.00;;;;;;4978838;28;20035;-69
2023/12/29 09:00:33;;;;;;;1.17;0.70;;;20.40;54.00;;;;;;4977281;28;20029;-69
2023/12/29 09:02:59;;;;;;;1.48;0.80;;;20.40;54.00;;;;;;4978656;28;20468;-69
2023/12/29 09:05:25;;;;;;;1.05;0.80;;;20.40;54.00;;;;;;4980645;28;20037;-69
2023/12/29 09:07:50;;;;;;;1.02;0.80;;;20.40;53.90;;;;;;4977822;28;20460;-69
2023/12/29 09:10:16;;;;;;;0.80;0.77;;;20.40;53.90;;;;;;4992870;28;20037;-69
2023/12/29 09:12:42;;;;;;;1.17;0.93;;;20.40;53.90;;;;;;4982713;28;20034;-69
2023/12/29 09:15:08;;;;;;;1.38;0.98;;;20.40;53.80;;;;;;4978560;28;20053;-69
2023/12/29 09:17:34;;;;;;;1.20;0.80;;;20.40;53.80;;;;;;4979806;28;20539;-69
2023/12/29 09:20:00;;;;;;;0.82;0.75;;;20.40;53.80;;;;;;4984349;28;20022;-69
2023/12/29 09:22:25;;;;;;;1.30;0.80;;;20.40;53.70;;;;;;4995494;28;20472;-69
2023/12/29 09:24:52;;;;;;;1.30;0.80;;;20.40;53.80;;;;;;4983474;28;20545;-70
2023/12/29 09:27:17;;;;;;;0.98;0.73;;;20.40;53.80;;;;;;4981508;28;20034;-68
2023/12/29 09:29:43;;;;;;;1.40;0.80;;;20.40;53.80;;;;;;4982154;28;20514;-69
2023/12/29 09:32:09;;;;;;;1.30;0.90;;;20.30;53.70;;;;;;4981595;28;20395;-69
2023/12/29 09:34:34;;;;;;;1.13;0.88;;;20.30;53.70;;;;;;4982324;28;20035;-69
2023/12/29 09:37:00;;;;;;;1.13;0.77;;;20.40;53.70;;;;;;4979513;28;20148;-68
2023/12/29 09:39:25;;;;;;;1.15;0.80;;;20.30;53.60;;;;;;4981548;28;20019;-68
2023/12/29 09:41:52;;;;;;;1.23;0.90;;;20.30;53.70;;;;;;4997354;28;20488;-68
2023/12/29 09:44:21;;;;;;;0.88;0.80;;;20.30;53.70;;;;;;4995934;28;20022;-69
2023/12/29 09:46:52;;;;;;;1.10;0.80;;;20.30;53.80;;;;;;4983832;28;20478;-68
2023/12/29 09:49:19;;;;;;;1.02;0.80;;;20.30;53.70;;;;;;4981597;28;20022;-69
2023/12/29 09:51:46;;;;;;;0.90;0.70;;;20.30;53.80;;;;;;4996244;28;20110;-68
2023/12/29 09:54:13;;;;;;;1.00;0.75;;;20.30;53.80;;;;;;4980785;28;20736;-70
2023/12/29 09:56:39;;;;;;;1.30;0.85;;;20.30;53.80;;;;;;4982144;28;20035;-69
2023/12/29 09:59:06;;;;;;;0.93;0.80;;;20.30;53.80;;;;;;4982662;28;20045;-69
2023/12/29 10:01:33;;;;;;;1.00;0.80;;;20.30;53.80;;;;;;4980316;28;20254;-69
2023/12/29 10:03:59;;;;;;;1.35;0.88;;;20.30;53.90;;;;;;4978958;28;20456;-69
2023/12/29 10:06:26;;;;;;;1.33;0.80;;;20.30;53.90;;;;;;4982487;28;20027;-70
2023/12/29 10:08:52;;;;;;;0.80;0.80;;;20.30;54.00;;;;;;4983554;28;20059;-69
2023/12/29 10:11:24;;;;;;;1.13;0.70;;;20.30;53.90;;;;;;4998614;28;20403;-69
2023/12/29 10:13:52;;;;;;;0.70;0.70;;;20.30;54.00;;;;;;4982128;28;20030;-69
2023/12/29 10:16:41;;;;;;;1.20;0.70;;;20.30;54.00;;;;;;4977629;28;20483;-69
2023/12/29 10:19:22;;;;;;;0.80;0.70;;;20.30;53.90;;;;;;4981955;28;20434;-69
2023/12/29 10:22:06;;;;;;;0.93;0.70;;;20.30;54.00;;;;;;4983930;28;20040;-68
2023/12/29 10:24:32;;;;;;;1.27;0.80;;;20.30;54.00;;;;;;4982711;28;20027;-69
2023/12/29 10:26:58;;;;;;;0.77;0.70;;;20.30;54.00;;;;;;4980924;28;20497;-68
2023/12/29 10:29:26;;;;;;;1.88;1.02;;;20.30;54.00;;;;;;4997028;28;20027;-70
2023/12/29 10:31:52;;;;;;;0.88;0.73;;;20.30;54.00;;;;;;4981179;28;20038;-70
2023/12/29 10:34:31;;;;;;;1.88;1.10;;;20.20;54.00;;;;;;4981787;28;20039;-69
2023/12/29 10:36:58;;;;;;;1.02;0.88;;;20.30;54.00;;;;;;4981069;28;20090;-69
2023/12/29 10:39:24;;;;;;;1.08;0.80;;;20.20;54.00;;;;;;4995028;28;20089;-69
2023/12/29 10:42:10;;;;;;;0.82;0.70;;;20.30;54.00;;;;;;4980297;28;20128;-69
2023/12/29 10:44:37;;;;;;;0.90;0.75;;;20.20;54.00;;;;;;4980931;28;20406;-70
2023/12/29 10:47:12;;;;;;;0.90;0.68;;;20.20;54.10;;;;;;4980553;28;20048;-70
2023/12/29 10:49:39;;;;;;;0.88;0.70;;;20.30;54.20;;;;;;4996676;28;20041;-71
2023/12/29 10:52:15;;;;;;;1.20;0.70;;;20.30;54.10;;;;;;4982750;28;20030;-71
2023/12/29 10:54:44;;;;;;;0.95;0.80;;;20.30;54.20;;;;;;4978504;28;20038;-71
2023/12/29 10:57:14;;;;;;;1.25;0.80;;;20.20;54.10;;;;;;4981214;28;20501;-71
2023/12/29 10:59:40;;;;;;;1.17;0.80;;;20.20;54.20;;;;;;4980128;28;20038;-71
2023/12/29 11:02:08;;;;;;;1.35;0.90;;;20.20;54.10;;;;;;4981425;28;20033;-71
2023/12/29 11:04:41;;;;;;;1.20;0.73;;;20.30;54.20;;;;;;4995370;28;20034;-68
2023/12/29 11:07:07;;;;;;;1.42;0.90;;;20.30;54.20;;;;;;4982355;28;20023;-69
2023/12/29 11:09:34;;;;;;;1.15;0.80;;;20.30;54.20;;;;;;4980517;28;20039;-69
2023/12/29 11:12:04;;;;;;;1.48;0.70;;;20.20;54.20;;;;;;4978753;28;20197;-69
2023/12/29 11:14:33;;;;;;;1.02;0.80;;;20.30;54.20;;;;;;4980439;28;20026;-68
2023/12/29 11:17:00;;;;;;;0.70;0.70;;;20.20;54.20;;;;;;4980907;28;20504;-68
2023/12/29 11:19:27;;;;;;;1.10;0.80;;;20.20;54.20;;;;;;4980269;28;20368;-68
2023/12/29 11:21:55;;;;;;;0.90;0.70;;;20.20;54.20;;;;;;4982887;28;20027;-68
2023/12/29 11:24:21;;;;;;;1.00;0.80;;;20.20;54.20;;;;;;4980341;28;20030;-68
2023/12/29 11:26:49;;;;;;;1.30;0.95;;;20.20;54.20;;;;;;4980824;28;20034;-68
2023/12/29 11:29:16;;;;;;;1.02;0.70;;;20.20;54.20;;;;;;4980019;28;20034;-68
2023/12/29 11:31:43;;;;;;;1.02;0.80;;;20.30;54.30;;;;;;4980217;28;20031;-68
2023/12/29 11:34:37;;;;;;;1.55;0.80;;;20.20;54.20;;;;;;4980816;28;20748;-69
2023/12/29 11:37:22;;;;;;;1.10;0.90;;;20.30;54.10;;;;;;4979569;28;20030;-68
2023/12/29 11:39:54;;;;;;;1.25;0.90;;;20.20;54.10;;;;;;4981014;28;20037;-68
2023/12/29 11:42:22;;;;;;;1.85;0.90;;;20.20;54.10;;;;;;4977839;28;20027;-68
2023/12/29 11:44:50;;;;;;;1.15;0.90;;;20.30;54.20;;;;;;4979096;28;20062;-69
2023/12/29 11:47:36;;;;;;;1.10;0.80;;;20.20;54.20;;;;;;4979054;28;20092;-69
2023/12/29 11:50:03;;;;;;;1.55;0.90;;;20.30;54.20;;;;;;4979961;28;20037;-68
2023/12/29 11:52:35;;;;;;;1.55;1.00;;;20.20;54.70;;;;;;4994187;28;20111;-69
2023/12/29 11:55:12;;;;;;;1.40;1.00;;;20.20;54.20;;;;;;4980351;28;20366;-70
2023/12/29 11:57:39;;;;;;;1.60;1.10;;;20.20;54.20;;;;;;4980382;28;20065;-70
2023/12/29 12:00:06;;;;;;;1.48;0.90;;;20.20;54.20;;;;;;4979451;28;20026;-70
2023/12/29 12:02:32;;;;;;;1.60;1.00;;;20.20;54.20;;;;;;4979489;28;20041;-71
2023/12/29 12:04:58;;;;;;;1.20;0.90;;;20.20;54.20;;;;;;4997897;28;20053;-71
2023/12/29 12:07:27;;;;;;;1.40;1.02;;;20.30;54.30;;;;;;4982698;28;20058;-70
2023/12/29 12:10:32;;;;;;;1.58;0.90;;;20.30;54.30;;;;;;4993999;28;20491;-70
2023/12/29 12:12:59;;;;;;;1.55;0.95;;;20.20;54.20;;;;;;4980474;28;20034;-70
2023/12/29 12:15:30;;;;;;;1.42;0.90;;;20.20;54.30;;;;;;4994731;28;20375;-70
2023/12/29 12:17:57;;;;;;;1.80;0.90;;;20.30;54.20;;;;;;4979447;28;20546;-70
2023/12/29 12:20:23;;;;;;;1.50;0.80;;;20.30;54.20;;;;;;4977857;28;20074;-70
2023/12/29 12:22:58;;;;;;;1.05;0.85;;;20.30;54.20;;;;;;4996625;28;20039;-70
2023/12/29 12:25:29;;;;;;;1.50;0.90;;;20.30;54.20;;;;;;4980581;28;20026;-71
2023/12/29 12:27:56;;;;;;;1.40;0.80;;;20.20;54.20;;;;;;4997725;28;20386;-71
2023/12/29 12:30:22;;;;;;;1.45;0.80;;;20.20;54.20;;;;;;4981562;28;20503;-70
2023/12/29 12:33:02;;;;;;;2.28;1.10;;;20.20;54.60;;;;;;4979386;28;20363;-70
2023/12/29 12:35:28;;;;;;;1.15;0.90;;;20.30;54.20;;;;;;4994619;28;20120;-70
2023/12/29 12:38:13;;;;;;;1.48;0.90;;;20.20;54.20;;;;;;4981227;28;20499;-71
2023/12/29 12:40:40;;;;;;;1.75;0.98;;;20.30;54.30;;;;;;4977147;28;20035;-71
2023/12/29 12:43:06;;;;;;;1.35;0.80;;;20.30;54.30;;;;;;4978391;28;20038;-70
2023/12/29 12:45:41;;;;;;;1.80;1.00;;;20.30;54.30;;;;;;4977313;28;20053;-70
2023/12/29 12:48:19;;;;;;;1.20;0.90;;;20.20;54.20;;;;;;4978658;28;20038;-70